sensor_id;sensor_type;location;lat;lon;timestamp;P1;durP1;ratioP1;P2;durP2;ratioP2
1785;SDS011;890;48.158;11.540;2023-12-28T00:01:09;711.90;;;654.37;;
1785;SDS011;890;48.158;11.540;2023-12-28T00:03:34;418.30;;;360.87;;
1785;SDS011;890;48.158;11.540;2023-12-28T00:06:00;707.80;;;650.67;;
1785;SDS011;890;48.158;11.540;2023-12-28T00:08:26;719.33;;;661.03;;
1785;SDS011;890;48.158;11.540;2023-12-28T00:10:51;624.60;;;572.57;;
1785;SDS011;890;48.158;11.540;2023-12-28T00:13:18;652.40;;;599.65;;
1785;SDS011;890;48.158;11.540;2023-12-28T00:15:43;735.47;;;676.47;;
1785;SDS011;890;48.158;11.540;2023-12-28T00:18:11;684.53;;;630.42;;
1785;SDS011;890;48.158;11.540;2023-12-28T00:20:36;606.03;;;554.00;;
1785;SDS011;890;48.158;11.540;2023-12-28T00:23:02;402.03;;;326.30;;
1785;SDS011;890;48.158;11.540;2023-12-28T00:25:28;408.88;;;345.77;;
1785;SDS011;890;48.158;11.540;2023-12-28T00:27:54;615.90;;;564.30;;
1785;SDS011;890;48.158;11.540;2023-12-28T00:30:20;401.60;;;335.03;;
1785;SDS011;890;48.158;11.540;2023-12-28T00:32:45;676.20;;;621.17;;
1785;SDS011;890;48.158;11.540;2023-12-28T00:35:11;623.53;;;571.67;;
1785;SDS011;890;48.158;11.540;2023-12-28T00:37:36;631.23;;;579.33;;
1785;SDS011;890;48.158;11.540;2023-12-28T00:40:04;404.55;;;352.05;;
1785;SDS011;890;48.158;11.540;2023-12-28T00:42:30;517.05;;;469.17;;
1785;SDS011;890;48.158;11.540;2023-12-28T00:44:55;381.33;;;291.20;;
1785;SDS011;890;48.158;11.540;2023-12-28T00:47:21;391.07;;;321.83;;
1785;SDS011;890;48.158;11.540;2023-12-28T00:49:47;713.97;;;656.33;;
1785;SDS011;890;48.158;11.540;2023-12-28T00:52:14;595.05;;;545.05;;
1785;SDS011;890;48.158;11.540;2023-12-28T00:54:40;618.47;;;567.40;;
1785;SDS011;890;48.158;11.540;2023-12-28T00:57:06;585.93;;;535.87;;
1785;SDS011;890;48.158;11.540;2023-12-28T00:59:31;423.33;;;369.33;;
1785;SDS011;890;48.158;11.540;2023-12-28T01:01:57;553.70;;;499.77;;
1785;SDS011;890;48.158;11.540;2023-12-28T01:04:24;646.90;;;595.15;;
1785;SDS011;890;48.158;11.540;2023-12-28T01:06:50;606.17;;;555.40;;
1785;SDS011;890;48.158;11.540;2023-12-28T01:09:16;402.08;;;334.92;;
1785;SDS011;890;48.158;11.540;2023-12-28T01:11:42;386.57;;;282.00;;
1785;SDS011;890;48.158;11.540;2023-12-28T01:14:07;380.87;;;277.70;;
1785;SDS011;890;48.158;11.540;2023-12-28T01:16:33;394.77;;;332.10;;
1785;SDS011;890;48.158;11.540;2023-12-28T01:19:00;407.80;;;338.67;;
1785;SDS011;890;48.158;11.540;2023-12-28T01:21:26;400.63;;;313.47;;
1785;SDS011;890;48.158;11.540;2023-12-28T01:23:53;390.52;;;300.48;;
1785;SDS011;890;48.158;11.540;2023-12-28T01:26:19;399.57;;;303.47;;
1785;SDS011;890;48.158;11.540;2023-12-28T01:28:45;399.57;;;307.30;;
1785;SDS011;890;48.158;11.540;2023-12-28T01:31:10;400.37;;;304.30;;
1785;SDS011;890;48.158;11.540;2023-12-28T01:33:36;409.33;;;329.40;;
1785;SDS011;890;48.158;11.540;2023-12-28T01:36:02;401.73;;;305.67;;
1785;SDS011;890;48.158;11.540;2023-12-28T01:38:29;422.17;;;375.83;;
1785;SDS011;890;48.158;11.540;2023-12-28T01:40:55;500.65;;;452.10;;
1785;SDS011;890;48.158;11.540;2023-12-28T01:43:20;440.60;;;393.27;;
1785;SDS011;890;48.158;11.540;2023-12-28T01:45:46;408.50;;;353.27;;
1785;SDS011;890;48.158;11.540;2023-12-28T01:48:12;405.57;;;327.37;;
1785;SDS011;890;48.158;11.540;2023-12-28T01:50:39;400.02;;;309.35;;
1785;SDS011;890;48.158;11.540;2023-12-28T01:53:04;397.27;;;305.90;;
1785;SDS011;890;48.158;11.540;2023-12-28T01:55:31;433.80;;;388.02;;
1785;SDS011;890;48.158;11.540;2023-12-28T01:57:58;397.75;;;317.60;;
1785;SDS011;890;48.158;11.540;2023-12-28T02:00:24;389.77;;;287.53;;
1785;SDS011;890;48.158;11.540;2023-12-28T02:02:52;309.38;;;206.82;;
1785;SDS011;890;48.158;11.540;2023-12-28T02:05:18;391.65;;;340.88;;
1785;SDS011;890;48.158;11.540;2023-12-28T02:07:44;390.23;;;288.00;;
1785;SDS011;890;48.158;11.540;2023-12-28T02:10:10;392.53;;;301.50;;
1785;SDS011;890;48.158;11.540;2023-12-28T02:12:35;385.77;;;277.87;;
1785;SDS011;890;48.158;11.540;2023-12-28T02:15:01;394.47;;;286.23;;
1785;SDS011;890;48.158;11.540;2023-12-28T02:20:13;386.63;;;271.40;;
1785;SDS011;890;48.158;11.540;2023-12-28T02:22:40;400.10;;;319.38;;
1785;SDS011;890;48.158;11.540;2023-12-28T02:25:10;397.52;;;306.90;;
1785;SDS011;890;48.158;11.540;2023-12-28T02:27:40;404.63;;;322.67;;
1785;SDS011;890;48.158;11.540;2023-12-28T02:30:07;401.98;;;301.88;;
1785;SDS011;890;48.158;11.540;2023-12-28T02:32:39;394.50;;;284.45;;
1785;SDS011;890;48.158;11.540;2023-12-28T02:35:09;527.90;;;478.08;;
1785;SDS011;890;48.158;11.540;2023-12-28T02:38:06;389.88;;;273.80;;
1785;SDS011;890;48.158;11.540;2023-12-28T02:40:39;381.88;;;235.40;;
1785;SDS011;890;48.158;11.540;2023-12-28T02:43:06;385.52;;;259.75;;
1785;SDS011;890;48.158;11.540;2023-12-28T02:45:33;395.38;;;271.45;;
1785;SDS011;890;48.158;11.540;2023-12-28T02:48:01;391.48;;;273.63;;
1785;SDS011;890;48.158;11.540;2023-12-28T02:50:27;389.17;;;254.05;;
1785;SDS011;890;48.158;11.540;2023-12-28T02:52:55;382.73;;;242.00;;
1785;SDS011;890;48.158;11.540;2023-12-28T02:55:21;390.27;;;264.23;;
1785;SDS011;890;48.158;11.540;2023-12-28T02:57:48;386.33;;;257.03;;
1785;SDS011;890;48.158;11.540;2023-12-28T03:00:15;404.65;;;327.35;;
1785;SDS011;890;48.158;11.540;2023-12-28T03:02:41;393.47;;;296.50;;
1785;SDS011;890;48.158;11.540;2023-12-28T03:05:07;398.83;;;297.23;;
1785;SDS011;890;48.158;11.540;2023-12-28T03:07:33;388.13;;;267.10;;
1785;SDS011;890;48.158;11.540;2023-12-28T03:10:00;397.38;;;313.10;;
1785;SDS011;890;48.158;11.540;2023-12-28T03:12:26;378.33;;;265.05;;
1785;SDS011;890;48.158;11.540;2023-12-28T03:14:53;385.30;;;285.85;;
1785;SDS011;890;48.158;11.540;2023-12-28T03:17:18;387.13;;;293.50;;
1785;SDS011;890;48.158;11.540;2023-12-28T03:19:44;378.43;;;261.33;;
1785;SDS011;890;48.158;11.540;2023-12-28T03:22:10;376.47;;;269.17;;
1785;SDS011;890;48.158;11.540;2023-12-28T03:24:38;379.67;;;280.40;;
1785;SDS011;890;48.158;11.540;2023-12-28T03:27:05;432.88;;;388.30;;
1785;SDS011;890;48.158;11.540;2023-12-28T03:29:31;432.35;;;387.20;;
1785;SDS011;890;48.158;11.540;2023-12-28T03:31:58;408.67;;;359.25;;
1785;SDS011;890;48.158;11.540;2023-12-28T03:34:25;388.38;;;332.80;;
1785;SDS011;890;48.158;11.540;2023-12-28T03:36:55;386.15;;;331.58;;
1785;SDS011;890;48.158;11.540;2023-12-28T03:39:22;483.75;;;438.45;;
1785;SDS011;890;48.158;11.540;2023-12-28T03:41:48;441.90;;;397.10;;
1785;SDS011;890;48.158;11.540;2023-12-28T03:44:14;458.47;;;412.47;;
1785;SDS011;890;48.158;11.540;2023-12-28T03:46:39;481.33;;;434.33;;
1785;SDS011;890;48.158;11.540;2023-12-28T03:49:05;396.60;;;352.80;;
1785;SDS011;890;48.158;11.540;2023-12-28T03:51:32;502.33;;;390.97;;
1785;SDS011;890;48.158;11.540;2023-12-28T03:53:58;419.05;;;365.77;;
1785;SDS011;890;48.158;11.540;2023-12-28T03:56:27;387.67;;;339.30;;
1785;SDS011;890;48.158;11.540;2023-12-28T03:58:53;495.13;;;449.38;;
1785;SDS011;890;48.158;11.540;2023-12-28T04:01:20;606.85;;;556.78;;
1785;SDS011;890;48.158;11.540;2023-12-28T04:03:47;491.45;;;445.10;;
1785;SDS011;890;48.158;11.540;2023-12-28T04:06:13;464.98;;;420.45;;
1785;SDS011;890;48.158;11.540;2023-12-28T04:08:41;463.10;;;418.33;;
1785;SDS011;890;48.158;11.540;2023-12-28T04:11:07;445.08;;;400.10;;
1785;SDS011;890;48.158;11.540;2023-12-28T04:13:33;428.67;;;384.50;;
1785;SDS011;890;48.158;11.540;2023-12-28T04:15:59;432.13;;;388.20;;
1785;SDS011;890;48.158;11.540;2023-12-28T04:18:25;441.67;;;397.67;;
1785;SDS011;890;48.158;11.540;2023-12-28T04:20:51;514.67;;;465.77;;
1785;SDS011;890;48.158;11.540;2023-12-28T04:23:16;276.23;;;261.70;;
1785;SDS011;890;48.158;11.540;2023-12-28T04:25:43;277.33;;;265.60;;
1785;SDS011;890;48.158;11.540;2023-12-28T04:28:09;706.90;;;661.53;;
1785;SDS011;890;48.158;11.540;2023-12-28T04:30:35;838.43;;;785.77;;
1785;SDS011;890;48.158;11.540;2023-12-28T04:33:02;817.17;;;762.57;;
1785;SDS011;890;48.158;11.540;2023-12-28T04:35:28;886.60;;;828.10;;
1785;SDS011;890;48.158;11.540;2023-12-28T04:37:54;850.27;;;797.93;;
1785;SDS011;890;48.158;11.540;2023-12-28T04:40:20;790.50;;;734.23;;
1785;SDS011;890;48.158;11.540;2023-12-28T04:42:46;727.60;;;680.43;;
1785;SDS011;890;48.158;11.540;2023-12-28T04:45:14;728.93;;;687.33;;
1785;SDS011;890;48.158;11.540;2023-12-28T04:47:40;826.10;;;782.60;;
1785;SDS011;890;48.158;11.540;2023-12-28T04:50:06;688.17;;;647.00;;
1785;SDS011;890;48.158;11.540;2023-12-28T04:52:33;760.03;;;723.30;;
1785;SDS011;890;48.158;11.540;2023-12-28T04:54:59;303.47;;;288.03;;
1785;SDS011;890;48.158;11.540;2023-12-28T04:57:26;658.43;;;623.67;;
1785;SDS011;890;48.158;11.540;2023-12-28T04:59:53;928.33;;;872.03;;
1785;SDS011;890;48.158;11.540;2023-12-28T05:02:18;952.63;;;889.60;;
1785;SDS011;890;48.158;11.540;2023-12-28T05:04:46;814.93;;;763.17;;
1785;SDS011;890;48.158;11.540;2023-12-28T05:07:11;787.37;;;742.00;;
1785;SDS011;890;48.158;11.540;2023-12-28T05:09:37;856.60;;;814.57;;
1785;SDS011;890;48.158;11.540;2023-12-28T05:12:03;695.63;;;660.77;;
1785;SDS011;890;48.158;11.540;2023-12-28T05:14:29;924.90;;;877.93;;
1785;SDS011;890;48.158;11.540;2023-12-28T05:16:57;830.83;;;788.53;;
1785;SDS011;890;48.158;11.540;2023-12-28T05:19:22;675.17;;;632.10;;
1785;SDS011;890;48.158;11.540;2023-12-28T05:21:48;643.20;;;609.43;;
1785;SDS011;890;48.158;11.540;2023-12-28T05:24:14;846.83;;;799.00;;
1785;SDS011;890;48.158;11.540;2023-12-28T05:26:39;780.13;;;736.67;;
1785;SDS011;890;48.158;11.540;2023-12-28T05:29:05;797.43;;;759.80;;
1785;SDS011;890;48.158;11.540;2023-12-28T05:31:30;566.27;;;530.20;;
1785;SDS011;890;48.158;11.540;2023-12-28T05:33:56;91.97;;;86.97;;
1785;SDS011;890;48.158;11.540;2023-12-28T05:36:23;403.17;;;380.67;;
1785;SDS011;890;48.158;11.540;2023-12-28T05:38:49;622.00;;;584.93;;
1785;SDS011;890;48.158;11.540;2023-12-28T05:41:15;946.90;;;898.00;;
1785;SDS011;890;48.158;11.540;2023-12-28T05:43:42;802.10;;;760.50;;
1785;SDS011;890;48.158;11.540;2023-12-28T05:46:09;714.70;;;673.97;;
1785;SDS011;890;48.158;11.540;2023-12-28T05:48:35;821.20;;;768.50;;
1785;SDS011;890;48.158;11.540;2023-12-28T05:51:00;849.30;;;789.37;;
1785;SDS011;890;48.158;11.540;2023-12-28T05:53:26;812.97;;;758.57;;
1785;SDS011;890;48.158;11.540;2023-12-28T05:55:52;886.87;;;822.73;;
1785;SDS011;890;48.158;11.540;2023-12-28T05:58:18;985.27;;;922.93;;
1785;SDS011;890;48.158;11.540;2023-12-28T06:00:44;879.00;;;826.13;;
1785;SDS011;890;48.158;11.540;2023-12-28T06:03:14;893.77;;;830.30;;
1785;SDS011;890;48.158;11.540;2023-12-28T06:05:40;1063.90;;;990.57;;
1785;SDS011;890;48.158;11.540;2023-12-28T06:08:05;839.33;;;776.53;;
1785;SDS011;890;48.158;11.540;2023-12-28T06:10:31;915.27;;;852.97;;
1785;SDS011;890;48.158;11.540;2023-12-28T06:12:57;884.90;;;818.47;;
1785;SDS011;890;48.158;11.540;2023-12-28T06:15:26;824.00;;;760.10;;
1785;SDS011;890;48.158;11.540;2023-12-28T06:17:52;807.50;;;744.40;;
1785;SDS011;890;48.158;11.540;2023-12-28T06:20:18;851.47;;;789.30;;
1785;SDS011;890;48.158;11.540;2023-12-28T06:22:44;816.90;;;755.20;;
1785;SDS011;890;48.158;11.540;2023-12-28T06:25:13;807.63;;;745.87;;
1785;SDS011;890;48.158;11.540;2023-12-28T06:27:39;564.00;;;519.13;;
1785;SDS011;890;48.158;11.540;2023-12-28T06:30:05;164.13;;;156.30;;
1785;SDS011;890;48.158;11.540;2023-12-28T06:32:31;351.70;;;335.00;;
1785;SDS011;890;48.158;11.540;2023-12-28T06:34:57;1197.20;;;999.90;;
1785;SDS011;890;48.158;11.540;2023-12-28T06:37:22;771.17;;;738.30;;
1785;SDS011;890;48.158;11.540;2023-12-28T06:39:48;716.53;;;679.40;;
1785;SDS011;890;48.158;11.540;2023-12-28T06:42:14;773.53;;;733.23;;
1785;SDS011;890;48.158;11.540;2023-12-28T06:44:40;694.97;;;661.17;;
1785;SDS011;890;48.158;11.540;2023-12-28T06:47:05;899.40;;;846.43;;
1785;SDS011;890;48.158;11.540;2023-12-28T06:49:31;719.60;;;679.43;;
1785;SDS011;890;48.158;11.540;2023-12-28T06:51:57;827.87;;;769.67;;
1785;SDS011;890;48.158;11.540;2023-12-28T06:54:22;755.83;;;712.87;;
1785;SDS011;890;48.158;11.540;2023-12-28T06:56:52;877.63;;;825.93;;
1785;SDS011;890;48.158;11.540;2023-12-28T06:59:17;771.97;;;725.20;;
1785;SDS011;890;48.158;11.540;2023-12-28T07:01:43;644.93;;;612.93;;
1785;SDS011;890;48.158;11.540;2023-12-28T07:04:10;584.33;;;557.23;;
1785;SDS011;890;48.158;11.540;2023-12-28T07:06:38;614.63;;;586.07;;
1785;SDS011;890;48.158;11.540;2023-12-28T07:09:03;649.57;;;616.43;;
1785;SDS011;890;48.158;11.540;2023-12-28T07:11:29;900.67;;;848.47;;
1785;SDS011;890;48.158;11.540;2023-12-28T07:13:55;831.37;;;771.27;;
1785;SDS011;890;48.158;11.540;2023-12-28T07:16:22;737.43;;;688.50;;
1785;SDS011;890;48.158;11.540;2023-12-28T07:18:48;829.97;;;769.23;;
1785;SDS011;890;48.158;11.540;2023-12-28T07:21:13;825.20;;;763.70;;
1785;SDS011;890;48.158;11.540;2023-12-28T07:23:39;797.37;;;740.47;;
1785;SDS011;890;48.158;11.540;2023-12-28T07:26:05;676.93;;;635.83;;
1785;SDS011;890;48.158;11.540;2023-12-28T07:28:31;811.13;;;758.77;;
1785;SDS011;890;48.158;11.540;2023-12-28T07:30:57;824.50;;;775.53;;
1785;SDS011;890;48.158;11.540;2023-12-28T07:33:23;632.47;;;603.67;;
1785;SDS011;890;48.158;11.540;2023-12-28T07:35:48;570.77;;;542.53;;
1785;SDS011;890;48.158;11.540;2023-12-28T07:38:14;720.53;;;683.93;;
1785;SDS011;890;48.158;11.540;2023-12-28T07:40:40;854.83;;;801.83;;
1785;SDS011;890;48.158;11.540;2023-12-28T07:43:06;595.90;;;566.00;;
1785;SDS011;890;48.158;11.540;2023-12-28T07:45:32;878.70;;;828.17;;
1785;SDS011;890;48.158;11.540;2023-12-28T07:48:01;813.57;;;758.37;;
1785;SDS011;890;48.158;11.540;2023-12-28T07:50:26;818.83;;;759.60;;
1785;SDS011;890;48.158;11.540;2023-12-28T07:52:52;813.23;;;763.23;;
1785;SDS011;890;48.158;11.540;2023-12-28T07:55:18;812.77;;;771.60;;
1785;SDS011;890;48.158;11.540;2023-12-28T07:57:45;897.60;;;847.07;;
1785;SDS011;890;48.158;11.540;2023-12-28T08:00:10;808.13;;;754.73;;
1785;SDS011;890;48.158;11.540;2023-12-28T08:02:36;800.73;;;742.20;;
1785;SDS011;890;48.158;11.540;2023-12-28T08:05:03;857.37;;;800.27;;
1785;SDS011;890;48.158;11.540;2023-12-28T08:07:29;877.73;;;818.17;;
1785;SDS011;890;48.158;11.540;2023-12-28T08:09:55;827.47;;;771.23;;
1785;SDS011;890;48.158;11.540;2023-12-28T08:12:20;821.47;;;766.30;;
1785;SDS011;890;48.158;11.540;2023-12-28T08:14:47;879.10;;;819.87;;
1785;SDS011;890;48.158;11.540;2023-12-28T08:17:12;874.17;;;823.00;;
1785;SDS011;890;48.158;11.540;2023-12-28T08:19:38;918.40;;;865.33;;
1785;SDS011;890;48.158;11.540;2023-12-28T08:22:03;846.40;;;787.63;;
1785;SDS011;890;48.158;11.540;2023-12-28T08:24:29;826.57;;;770.03;;
1785;SDS011;890;48.158;11.540;2023-12-28T08:26:55;944.73;;;880.87;;
1785;SDS011;890;48.158;11.540;2023-12-28T08:29:24;892.17;;;830.30;;
1785;SDS011;890;48.158;11.540;2023-12-28T08:31:51;869.10;;;804.70;;
1785;SDS011;890;48.158;11.540;2023-12-28T08:34:18;917.43;;;854.63;;
1785;SDS011;890;48.158;11.540;2023-12-28T08:36:43;801.43;;;742.97;;
1785;SDS011;890;48.158;11.540;2023-12-28T08:39:09;874.23;;;814.63;;
1785;SDS011;890;48.158;11.540;2023-12-28T08:41:35;877.90;;;818.20;;
1785;SDS011;890;48.158;11.540;2023-12-28T08:44:01;888.87;;;828.20;;
1785;SDS011;890;48.158;11.540;2023-12-28T08:46:26;915.70;;;854.13;;
1785;SDS011;890;48.158;11.540;2023-12-28T08:48:53;907.57;;;845.33;;
1785;SDS011;890;48.158;11.540;2023-12-28T08:51:18;895.73;;;835.03;;
1785;SDS011;890;48.158;11.540;2023-12-28T08:53:45;972.20;;;907.93;;
1785;SDS011;890;48.158;11.540;2023-12-28T08:56:21;960.53;;;896.37;;
1785;SDS011;890;48.158;11.540;2023-12-28T08:58:47;960.47;;;897.10;;
1785;SDS011;890;48.158;11.540;2023-12-28T09:01:19;917.70;;;855.50;;
1785;SDS011;890;48.158;11.540;2023-12-28T09:03:54;937.80;;;875.13;;
1785;SDS011;890;48.158;11.540;2023-12-28T09:06:20;912.57;;;851.20;;
1785;SDS011;890;48.158;11.540;2023-12-28T09:08:48;946.17;;;882.93;;
1785;SDS011;890;48.158;11.540;2023-12-28T09:11:15;940.80;;;877.93;;
1785;SDS011;890;48.158;11.540;2023-12-28T09:13:41;928.27;;;866.97;;
1785;SDS011;890;48.158;11.540;2023-12-28T09:16:08;947.47;;;880.70;;
1785;SDS011;890;48.158;11.540;2023-12-28T09:18:36;1025.17;;;962.87;;
1785;SDS011;890;48.158;11.540;2023-12-28T09:21:03;978.73;;;926.77;;
1785;SDS011;890;48.158;11.540;2023-12-28T09:23:29;878.37;;;827.73;;
1785;SDS011;890;48.158;11.540;2023-12-28T09:25:56;991.33;;;926.73;;
1785;SDS011;890;48.158;11.540;2023-12-28T09:28:23;969.67;;;906.07;;
1785;SDS011;890;48.158;11.540;2023-12-28T09:30:49;1061.83;;;995.00;;
1785;SDS011;890;48.158;11.540;2023-12-28T09:33:14;1035.20;;;973.20;;
1785;SDS011;890;48.158;11.540;2023-12-28T09:35:42;1046.63;;;979.53;;
1785;SDS011;890;48.158;11.540;2023-12-28T09:38:08;1009.77;;;945.20;;
1785;SDS011;890;48.158;11.540;2023-12-28T09:40:37;967.40;;;903.53;;
1785;SDS011;890;48.158;11.540;2023-12-28T09:45:39;1021.77;;;967.07;;
1785;SDS011;890;48.158;11.540;2023-12-28T09:48:05;1039.47;;;974.37;;
1785;SDS011;890;48.158;11.540;2023-12-28T09:50:32;996.77;;;931.70;;
1785;SDS011;890;48.158;11.540;2023-12-28T09:52:58;961.20;;;897.87;;
1785;SDS011;890;48.158;11.540;2023-12-28T09:55:24;992.73;;;928.07;;
1785;SDS011;890;48.158;11.540;2023-12-28T09:57:52;977.87;;;914.50;;
1785;SDS011;890;48.158;11.540;2023-12-28T10:00:19;999.63;;;934.63;;
1785;SDS011;890;48.158;11.540;2023-12-28T10:02:47;901.30;;;838.67;;
1785;SDS011;890;48.158;11.540;2023-12-28T10:05:13;1037.47;;;968.60;;
1785;SDS011;890;48.158;11.540;2023-12-28T10:07:40;1045.23;;;978.13;;
1785;SDS011;890;48.158;11.540;2023-12-28T10:10:07;1062.93;;;997.30;;
1785;SDS011;890;48.158;11.540;2023-12-28T10:12:34;946.57;;;892.90;;
1785;SDS011;890;48.158;11.540;2023-12-28T10:14:59;1033.87;;;975.47;;
1785;SDS011;890;48.158;11.540;2023-12-28T10:17:25;1016.23;;;959.53;;
1785;SDS011;890;48.158;11.540;2023-12-28T10:19:52;950.43;;;896.17;;
1785;SDS011;890;48.158;11.540;2023-12-28T10:22:18;764.97;;;727.70;;
1785;SDS011;890;48.158;11.540;2023-12-28T10:24:45;783.77;;;744.27;;
1785;SDS011;890;48.158;11.540;2023-12-28T10:27:10;804.90;;;764.70;;
1785;SDS011;890;48.158;11.540;2023-12-28T10:29:42;279.80;;;265.77;;
1785;SDS011;890;48.158;11.540;2023-12-28T10:32:07;12.03;;;4.80;;
1785;SDS011;890;48.158;11.540;2023-12-28T10:34:33;7.93;;;3.17;;
1785;SDS011;890;48.158;11.540;2023-12-28T10:36:59;6.13;;;4.00;;
1785;SDS011;890;48.158;11.540;2023-12-28T10:39:27;3.43;;;2.00;;
1785;SDS011;890;48.158;11.540;2023-12-28T10:41:58;3.50;;;1.70;;
1785;SDS011;890;48.158;11.540;2023-12-28T10:44:29;4.33;;;2.00;;
1785;SDS011;890;48.158;11.540;2023-12-28T10:47:01;4.00;;;2.23;;
1785;SDS011;890;48.158;11.540;2023-12-28T10:49:30;14.70;;;13.67;;
1785;SDS011;890;48.158;11.540;2023-12-28T10:51:58;3.13;;;2.00;;
1785;SDS011;890;48.158;11.540;2023-12-28T11:02:26;766.33;;;728.93;;
1785;SDS011;890;48.158;11.540;2023-12-28T11:04:56;725.33;;;690.63;;
1785;SDS011;890;48.158;11.540;2023-12-28T11:07:24;172.33;;;163.37;;
1785;SDS011;890;48.158;11.540;2023-12-28T11:09:57;302.93;;;284.30;;
1785;SDS011;890;48.158;11.540;2023-12-28T11:12:25;461.77;;;436.07;;
1785;SDS011;890;48.158;11.540;2023-12-28T11:14:52;348.67;;;331.10;;
1785;SDS011;890;48.158;11.540;2023-12-28T11:17:20;22.60;;;20.83;;
1785;SDS011;890;48.158;11.540;2023-12-28T11:19:47;141.73;;;133.10;;
1785;SDS011;890;48.158;11.540;2023-12-28T11:22:14;103.47;;;98.90;;
1785;SDS011;890;48.158;11.540;2023-12-28T11:24:41;75.20;;;71.47;;
1785;SDS011;890;48.158;11.540;2023-12-28T11:27:07;6.27;;;3.77;;
1785;SDS011;890;48.158;11.540;2023-12-28T11:29:33;4.00;;;2.10;;
1785;SDS011;890;48.158;11.540;2023-12-28T11:31:59;108.23;;;102.87;;
1785;SDS011;890;48.158;11.540;2023-12-28T11:34:28;3.60;;;1.63;;
1785;SDS011;890;48.158;11.540;2023-12-28T11:36:56;1.67;;;1.57;;
1785;SDS011;890;48.158;11.540;2023-12-28T11:39:29;2.23;;;1.50;;
1785;SDS011;890;48.158;11.540;2023-12-28T11:42:05;667.77;;;632.30;;
1785;SDS011;890;48.158;11.540;2023-12-28T11:44:39;175.60;;;166.77;;
1785;SDS011;890;48.158;11.540;2023-12-28T11:47:12;13.57;;;12.37;;
1785;SDS011;890;48.158;11.540;2023-12-28T11:50:05;409.70;;;390.60;;
1785;SDS011;890;48.158;11.540;2023-12-28T11:52:32;23.47;;;21.97;;
1785;SDS011;890;48.158;11.540;2023-12-28T11:54:59;20.03;;;18.60;;
1785;SDS011;890;48.158;11.540;2023-12-28T11:57:25;42.43;;;40.03;;
1785;SDS011;890;48.158;11.540;2023-12-28T12:00:09;242.23;;;231.70;;
1785;SDS011;890;48.158;11.540;2023-12-28T12:02:35;449.20;;;427.67;;
1785;SDS011;890;48.158;11.540;2023-12-28T12:05:01;373.57;;;355.80;;
1785;SDS011;890;48.158;11.540;2023-12-28T12:07:27;238.33;;;227.73;;
1785;SDS011;890;48.158;11.540;2023-12-28T12:09:57;780.20;;;742.83;;
1785;SDS011;890;48.158;11.540;2023-12-28T12:12:23;864.90;;;823.17;;
1785;SDS011;890;48.158;11.540;2023-12-28T12:14:50;627.67;;;598.40;;
1785;SDS011;890;48.158;11.540;2023-12-28T12:17:15;410.07;;;390.87;;
1785;SDS011;890;48.158;11.540;2023-12-28T12:19:42;151.97;;;145.13;;
1785;SDS011;890;48.158;11.540;2023-12-28T12:22:08;266.07;;;253.13;;
1785;SDS011;890;48.158;11.540;2023-12-28T12:24:34;318.03;;;303.63;;
1785;SDS011;890;48.158;11.540;2023-12-28T12:27:02;60.90;;;57.00;;
1785;SDS011;890;48.158;11.540;2023-12-28T12:29:31;451.30;;;412.40;;
1785;SDS011;890;48.158;11.540;2023-12-28T12:31:57;5.33;;;4.53;;
1785;SDS011;890;48.158;11.540;2023-12-28T12:34:23;3.27;;;1.83;;
1785;SDS011;890;48.158;11.540;2023-12-28T12:36:49;8.27;;;7.67;;
1785;SDS011;890;48.158;11.540;2023-12-28T12:39:17;2.87;;;2.20;;
1785;SDS011;890;48.158;11.540;2023-12-28T12:41:45;2.17;;;1.67;;
1785;SDS011;890;48.158;11.540;2023-12-28T12:44:11;20.70;;;19.37;;
1785;SDS011;890;48.158;11.540;2023-12-28T12:46:37;4.50;;;2.00;;
1785;SDS011;890;48.158;11.540;2023-12-28T12:49:03;404.53;;;385.27;;
1785;SDS011;890;48.158;11.540;2023-12-28T12:51:31;702.60;;;648.27;;
1785;SDS011;890;48.158;11.540;2023-12-28T12:53:57;988.10;;;928.20;;
1785;SDS011;890;48.158;11.540;2023-12-28T12:56:27;983.00;;;934.83;;
1785;SDS011;890;48.158;11.540;2023-12-28T12:58:55;180.10;;;168.73;;
1785;SDS011;890;48.158;11.540;2023-12-28T13:01:21;536.20;;;507.60;;
1785;SDS011;890;48.158;11.540;2023-12-28T13:03:48;921.17;;;876.00;;
1785;SDS011;890;48.158;11.540;2023-12-28T13:06:14;544.97;;;518.30;;
1785;SDS011;890;48.158;11.540;2023-12-28T13:08:40;945.43;;;898.77;;
1785;SDS011;890;48.158;11.540;2023-12-28T13:11:06;830.80;;;784.37;;
1785;SDS011;890;48.158;11.540;2023-12-28T13:13:32;868.13;;;816.30;;
1785;SDS011;890;48.158;11.540;2023-12-28T13:15:58;38.20;;;36.07;;
1785;SDS011;890;48.158;11.540;2023-12-28T13:18:24;4.93;;;2.83;;
1785;SDS011;890;48.158;11.540;2023-12-28T13:20:50;3.70;;;2.10;;
1785;SDS011;890;48.158;11.540;2023-12-28T13:23:15;83.67;;;79.00;;
1785;SDS011;890;48.158;11.540;2023-12-28T13:25:41;499.07;;;468.70;;
1785;SDS011;890;48.158;11.540;2023-12-28T13:28:08;6.47;;;2.87;;
1785;SDS011;890;48.158;11.540;2023-12-28T13:30:34;4.00;;;2.10;;
1785;SDS011;890;48.158;11.540;2023-12-28T13:33:01;140.20;;;133.70;;
1785;SDS011;890;48.158;11.540;2023-12-28T13:35:28;17.93;;;16.50;;
1785;SDS011;890;48.158;11.540;2023-12-28T13:37:54;30.80;;;29.00;;
1785;SDS011;890;48.158;11.540;2023-12-28T13:40:20;2.43;;;1.53;;
1785;SDS011;890;48.158;11.540;2023-12-28T13:42:46;3.90;;;2.23;;
1785;SDS011;890;48.158;11.540;2023-12-28T13:45:12;5.03;;;2.27;;
1785;SDS011;890;48.158;11.540;2023-12-28T13:47:37;4.57;;;2.27;;
1785;SDS011;890;48.158;11.540;2023-12-28T13:50:03;5.20;;;2.00;;
1785;SDS011;890;48.158;11.540;2023-12-28T13:52:31;3.57;;;1.90;;
1785;SDS011;890;48.158;11.540;2023-12-28T13:54:58;5.37;;;2.83;;
1785;SDS011;890;48.158;11.540;2023-12-28T13:57:24;4.00;;;2.20;;
1785;SDS011;890;48.158;11.540;2023-12-28T13:59:49;2.80;;;2.00;;
1785;SDS011;890;48.158;11.540;2023-12-28T14:02:16;6.10;;;2.20;;
1785;SDS011;890;48.158;11.540;2023-12-28T14:04:42;3.00;;;1.77;;
1785;SDS011;890;48.158;11.540;2023-12-28T14:07:08;5.67;;;3.07;;
1785;SDS011;890;48.158;11.540;2023-12-28T14:09:34;3.37;;;2.23;;
1785;SDS011;890;48.158;11.540;2023-12-28T14:12:01;4.37;;;2.30;;
1785;SDS011;890;48.158;11.540;2023-12-28T14:14:27;671.63;;;640.87;;
1785;SDS011;890;48.158;11.540;2023-12-28T14:16:52;863.97;;;825.30;;
1785;SDS011;890;48.158;11.540;2023-12-28T14:19:18;713.47;;;680.83;;
1785;SDS011;890;48.158;11.540;2023-12-28T14:21:43;77.33;;;72.60;;
1785;SDS011;890;48.158;11.540;2023-12-28T14:24:11;135.60;;;128.60;;
1785;SDS011;890;48.158;11.540;2023-12-28T14:26:40;3.80;;;2.10;;
1785;SDS011;890;48.158;11.540;2023-12-28T14:29:10;5.33;;;1.90;;
1785;SDS011;890;48.158;11.540;2023-12-28T14:31:36;2.40;;;1.80;;
1785;SDS011;890;48.158;11.540;2023-12-28T14:34:03;7.93;;;3.13;;
1785;SDS011;890;48.158;11.540;2023-12-28T14:36:31;715.87;;;675.60;;
1785;SDS011;890;48.158;11.540;2023-12-28T14:39:03;222.77;;;214.23;;